sensor_id;sensor_type;location;lat;lon;timestamp;pressure;altitude;pressure_sealevel;temperature;humidity
13367;BME280;6752;52.612;13.630;2023-04-26T00:01:55;100663.70;;;4.00;100.00
13367;BME280;6752;52.612;13.630;2023-04-26T00:06:57;100659.17;;;3.97;100.00
13367;BME280;6752;52.612;13.630;2023-04-26T00:12:00;100651.27;;;3.95;100.00
13367;BME280;6752;52.612;13.630;2023-04-26T00:17:02;100665.47;;;3.89;100.00
13367;BME280;6752;52.612;13.630;2023-04-26T00:22:04;100670.56;;;3.84;100.00
13367;BME280;6752;52.612;13.630;2023-04-26T00:27:07;100667.53;;;3.83;100.00
13367;BME280;6752;52.612;13.630;2023-04-26T00:32:09;100671.84;;;3.77;100.00
13367;BME280;6752;52.612;13.630;2023-04-26T00:37:11;100663.09;;;3.75;100.00
13367;BME280;6752;52.612;13.630;2023-04-26T00:42:14;100667.08;;;3.71;100.00
13367;BME280;6752;52.612;13.630;2023-04-26T00:47:16;100663.69;;;3.73;100.00
13367;BME280;6752;52.612;13.630;2023-04-26T00:52:21;100664.73;;;3.68;100.00
13367;BME280;6752;52.612;13.630;2023-04-26T00:57:23;100672.16;;;3.66;100.00
13367;BME280;6752;52.612;13.630;2023-04-26T01:02:26;100671.61;;;3.59;100.00
13367;BME280;6752;52.612;13.630;2023-04-26T01:07:28;100673.64;;;3.53;100.00
13367;BME280;6752;52.612;13.630;2023-04-26T01:12:31;100670.04;;;3.49;100.00
13367;BME280;6752;52.612;13.630;2023-04-26T01:17:33;100669.18;;;3.53;100.00
13367;BME280;6752;52.612;13.630;2023-04-26T01:22:35;100674.02;;;3.46;100.00
13367;BME280;6752;52.612;13.630;2023-04-26T01:27:38;100676.75;;;3.38;100.00
13367;BME280;6752;52.612;13.630;2023-04-26T01:32:40;100673.38;;;3.40;100.00
13367;BME280;6752;52.612;13.630;2023-04-26T01:37:42;100685.62;;;3.27;100.00
13367;BME280;6752;52.612;13.630;2023-04-26T01:42:44;100688.00;;;3.22;100.00
13367;BME280;6752;52.612;13.630;2023-04-26T01:47:47;100694.23;;;3.18;100.00
13367;BME280;6752;52.612;13.630;2023-04-26T01:52:49;100689.55;;;3.12;100.00
13367;BME280;6752;52.612;13.630;2023-04-26T01:57:51;100697.95;;;3.05;100.00
13367;BME280;6752;52.612;13.630;2023-04-26T02:02:57;100694.86;;;3.08;100.00
13367;BME280;6752;52.612;13.630;2023-04-26T02:07:59;100694.09;;;3.04;100.00
13367;BME280;6752;52.612;13.630;2023-04-26T02:13:01;100685.10;;;3.00;100.00
13367;BME280;6752;52.612;13.630;2023-04-26T02:18:03;100689.23;;;2.99;100.00
13367;BME280;6752;52.612;13.630;2023-04-26T02:23:05;100692.20;;;2.89;100.00
13367;BME280;6752;52.612;13.630;2023-04-26T02:28:08;100690.18;;;2.91;100.00
13367;BME280;6752;52.612;13.630;2023-04-26T02:33:10;100680.24;;;2.83;100.00
13367;BME280;6752;52.612;13.630;2023-04-26T02:38:13;100685.54;;;2.84;100.00
13367;BME280;6752;52.612;13.630;2023-04-26T02:43:15;100686.06;;;2.75;100.00
13367;BME280;6752;52.612;13.630;2023-04-26T02:48:17;100690.02;;;2.76;100.00
13367;BME280;6752;52.612;13.630;2023-04-26T02:53:20;100683.30;;;2.72;100.00
13367;BME280;6752;52.612;13.630;2023-04-26T02:58:22;100692.23;;;2.64;100.00
13367;BME280;6752;52.612;13.630;2023-04-26T03:03:24;100693.92;;;2.61;100.00
13367;BME280;6752;52.612;13.630;2023-04-26T03:08:30;100694.81;;;2.57;100.00
13367;BME280;6752;52.612;13.630;2023-04-26T03:13:32;100699.04;;;2.64;100.00
13367;BME280;6752;52.612;13.630;2023-04-26T03:18:34;100688.70;;;2.64;100.00
13367;BME280;6752;52.612;13.630;2023-04-26T03:23:40;100690.95;;;2.59;100.00
13367;BME280;6752;52.612;13.630;2023-04-26T03:28:40;100691.20;;;2.57;100.00
13367;BME280;6752;52.612;13.630;2023-04-26T03:33:41;100696.92;;;2.58;100.00
13367;BME280;6752;52.612;13.630;2023-04-26T03:38:44;100707.77;;;2.49;100.00
13367;BME280;6752;52.612;13.630;2023-04-26T03:43:46;100702.39;;;2.53;100.00
13367;BME280;6752;52.612;13.630;2023-04-26T03:48:48;100712.14;;;2.54;100.00
13367;BME280;6752;52.612;13.630;2023-04-26T03:53:51;100708.61;;;2.54;100.00
13367;BME280;6752;52.612;13.630;2023-04-26T03:58:53;100712.06;;;2.55;100.00
13367;BME280;6752;52.612;13.630;2023-04-26T04:03:56;100713.31;;;2.60;100.00
13367;BME280;6752;52.612;13.630;2023-04-26T04:08:58;100722.81;;;2.55;100.00
13367;BME280;6752;52.612;13.630;2023-04-26T04:14:00;100726.88;;;2.63;100.00
13367;BME280;6752;52.612;13.630;2023-04-26T04:19:03;100730.23;;;2.65;100.00
13367;BME280;6752;52.612;13.630;2023-04-26T04:24:05;100723.84;;;2.66;100.00
13367;BME280;6752;52.612;13.630;2023-04-26T04:29:07;100726.19;;;2.73;100.00
13367;BME280;6752;52.612;13.630;2023-04-26T04:34:10;100734.17;;;2.82;100.00
13367;BME280;6752;52.612;13.630;2023-04-26T04:39:12;100735.03;;;2.87;100.00
13367;BME280;6752;52.612;13.630;2023-04-26T04:44:14;100726.50;;;2.99;100.00
13367;BME280;6752;52.612;13.630;2023-04-26T04:49:16;100735.77;;;3.08;100.00
13367;BME280;6752;52.612;13.630;2023-04-26T04:54:18;100744.30;;;3.24;100.00
13367;BME280;6752;52.612;13.630;2023-04-26T04:59:21;100754.23;;;3.36;100.00
13367;BME280;6752;52.612;13.630;2023-04-26T05:04:23;100755.50;;;3.60;100.00
13367;BME280;6752;52.612;13.630;2023-04-26T05:09:25;100760.19;;;3.66;100.00
13367;BME280;6752;52.612;13.630;2023-04-26T05:14:28;100760.84;;;3.92;100.00
13367;BME280;6752;52.612;13.630;2023-04-26T05:19:30;100763.34;;;3.98;100.00
13367;BME280;6752;52.612;13.630;2023-04-26T05:24:32;100768.23;;;4.02;100.00
13367;BME280;6752;52.612;13.630;2023-04-26T05:29:35;100771.78;;;4.42;100.00
13367;BME280;6752;52.612;13.630;2023-04-26T05:34:37;100773.09;;;4.61;100.00
13367;BME280;6752;52.612;13.630;2023-04-26T05:39:39;100773.53;;;4.68;100.00
13367;BME280;6752;52.612;13.630;2023-04-26T05:44:42;100780.73;;;4.87;100.00
13367;BME280;6752;52.612;13.630;2023-04-26T05:49:44;100796.53;;;4.99;100.00
13367;BME280;6752;52.612;13.630;2023-04-26T05:54:47;100791.56;;;5.25;100.00
13367;BME280;6752;52.612;13.630;2023-04-26T05:59:49;100799.20;;;5.29;100.00
13367;BME280;6752;52.612;13.630;2023-04-26T06:04:51;100799.30;;;5.43;100.00
13367;BME280;6752;52.612;13.630;2023-04-26T06:09:53;100798.72;;;5.88;100.00
13367;BME280;6752;52.612;13.630;2023-04-26T06:14:56;100798.00;;;6.17;100.00
13367;BME280;6752;52.612;13.630;2023-04-26T06:19:58;100801.91;;;6.21;100.00
13367;BME280;6752;52.612;13.630;2023-04-26T06:25:00;100812.02;;;5.98;100.00
13367;BME280;6752;52.612;13.630;2023-04-26T06:30:03;100806.48;;;6.57;100.00
13367;BME280;6752;52.612;13.630;2023-04-26T06:35:05;100805.65;;;6.20;100.00
13367;BME280;6752;52.612;13.630;2023-04-26T06:40:07;100810.50;;;6.72;100.00
13367;BME280;6752;52.612;13.630;2023-04-26T06:45:10;100809.95;;;6.61;100.00
13367;BME280;6752;52.612;13.630;2023-04-26T06:50:13;100815.50;;;6.71;100.00
13367;BME280;6752;52.612;13.630;2023-04-26T06:55:15;100821.05;;;6.63;100.00
13367;BME280;6752;52.612;13.630;2023-04-26T07:00:17;100816.47;;;7.31;100.00
13367;BME280;6752;52.612;13.630;2023-04-26T07:05:19;100816.20;;;7.61;100.00
13367;BME280;6752;52.612;13.630;2023-04-26T07:10:22;100804.59;;;7.95;100.00
13367;BME280;6752;52.612;13.630;2023-04-26T07:15:24;100805.81;;;7.85;96.83
13367;BME280;6752;52.612;13.630;2023-04-26T07:20:26;100809.75;;;8.41;92.46
13367;BME280;6752;52.612;13.630;2023-04-26T07:25:29;100810.85;;;8.54;91.23
13367;BME280;6752;52.612;13.630;2023-04-26T07:30:31;100808.34;;;9.12;88.51
13367;BME280;6752;52.612;13.630;2023-04-26T07:35:33;100818.24;;;8.86;88.86
13367;BME280;6752;52.612;13.630;2023-04-26T07:40:35;100815.88;;;9.40;82.44
13367;BME280;6752;52.612;13.630;2023-04-26T07:45:38;100817.02;;;9.22;81.91
13367;BME280;6752;52.612;13.630;2023-04-26T07:50:40;100822.16;;;9.37;81.76
13367;BME280;6752;52.612;13.630;2023-04-26T07:55:42;100821.40;;;9.66;75.05
13367;BME280;6752;52.612;13.630;2023-04-26T08:00:45;100822.69;;;10.63;72.47
13367;BME280;6752;52.612;13.630;2023-04-26T08:05:47;100831.58;;;9.28;78.05
13367;BME280;6752;52.612;13.630;2023-04-26T08:10:49;100825.33;;;9.99;75.13
13367;BME280;6752;52.612;13.630;2023-04-26T08:15:52;100831.05;;;9.72;73.43
13367;BME280;6752;52.612;13.630;2023-04-26T08:20:54;100822.22;;;9.83;69.06
13367;BME280;6752;52.612;13.630;2023-04-26T08:25:57;100817.85;;;10.17;67.28
13367;BME280;6752;52.612;13.630;2023-04-26T08:30:59;100832.73;;;9.26;69.54
13367;BME280;6752;52.612;13.630;2023-04-26T08:36:01;100827.91;;;10.49;67.90
13367;BME280;6752;52.612;13.630;2023-04-26T08:41:04;100818.27;;;10.18;66.86
13367;BME280;6752;52.612;13.630;2023-04-26T08:46:10;100823.85;;;10.04;65.60
13367;BME280;6752;52.612;13.630;2023-04-26T08:51:11;100840.34;;;9.07;67.13
13367;BME280;6752;52.612;13.630;2023-04-26T08:56:14;100847.14;;;8.70;72.01
13367;BME280;6752;52.612;13.630;2023-04-26T09:01:16;100858.86;;;8.74;73.98
13367;BME280;6752;52.612;13.630;2023-04-26T09:06:18;100842.70;;;8.86;74.76
13367;BME280;6752;52.612;13.630;2023-04-26T09:11:20;100841.91;;;9.78;71.36
13367;BME280;6752;52.612;13.630;2023-04-26T09:16:34;100836.16;;;9.44;70.78
13367;BME280;6752;52.612;13.630;2023-04-26T09:21:41;100841.59;;;9.67;73.03
13367;BME280;6752;52.612;13.630;2023-04-26T09:26:42;100831.46;;;9.59;70.25
13367;BME280;6752;52.612;13.630;2023-04-26T09:31:45;100828.26;;;10.01;66.53
13367;BME280;6752;52.612;13.630;2023-04-26T09:36:53;100824.88;;;9.57;60.86
13367;BME280;6752;52.612;13.630;2023-04-26T09:41:55;100822.03;;;10.71;59.12
13367;BME280;6752;52.612;13.630;2023-04-26T09:47:04;100833.85;;;9.67;62.38
13367;BME280;6752;52.612;13.630;2023-04-26T09:52:06;100846.63;;;9.64;65.08
13367;BME280;6752;52.612;13.630;2023-04-26T09:57:09;100857.77;;;8.95;67.29
13367;BME280;6752;52.612;13.630;2023-04-26T10:07:17;100881.00;;;8.40;80.60
13367;BME280;6752;52.612;13.630;2023-04-26T10:12:18;100860.51;;;11.07;74.73
13367;BME280;6752;52.612;13.630;2023-04-26T10:17:20;100851.95;;;10.65;68.97
13367;BME280;6752;52.612;13.630;2023-04-26T10:22:23;100853.44;;;9.77;71.95
13367;BME280;6752;52.612;13.630;2023-04-26T10:48:15;100844.96;;;9.59;67.45
13367;BME280;6752;52.612;13.630;2023-04-26T10:53:20;100849.56;;;9.65;66.36
13367;BME280;6752;52.612;13.630;2023-04-26T10:58:29;100829.81;;;11.56;65.03
13367;BME280;6752;52.612;13.630;2023-04-26T11:03:30;100836.41;;;10.69;60.07
13367;BME280;6752;52.612;13.630;2023-04-26T11:08:33;100846.13;;;10.13;61.56
13367;BME280;6752;52.612;13.630;2023-04-26T11:13:39;100850.51;;;9.75;62.14
13367;BME280;6752;52.612;13.630;2023-04-26T11:18:41;100850.63;;;10.26;62.92
13367;BME280;6752;52.612;13.630;2023-04-26T11:23:51;100847.30;;;10.08;63.01
13367;BME280;6752;52.612;13.630;2023-04-26T11:28:45;100857.03;;;11.41;62.08
13367;BME280;6752;52.612;13.630;2023-04-26T11:33:48;100850.81;;;10.99;58.54
13367;BME280;6752;52.612;13.630;2023-04-26T11:38:50;100858.30;;;10.24;62.51
13367;BME280;6752;52.612;13.630;2023-04-26T11:43:52;100865.36;;;9.66;65.51
13367;BME280;6752;52.612;13.630;2023-04-26T11:48:55;100874.02;;;9.16;67.43
13367;BME280;6752;52.612;13.630;2023-04-26T11:53:58;100875.00;;;9.26;67.17
13367;BME280;6752;52.612;13.630;2023-04-26T11:58:59;100865.47;;;9.82;63.48
13367;BME280;6752;52.612;13.630;2023-04-26T12:04:02;100858.80;;;10.78;60.26
13367;BME280;6752;52.612;13.630;2023-04-26T12:09:04;100853.87;;;11.53;57.86
13367;BME280;6752;52.612;13.630;2023-04-26T12:14:06;100853.06;;;11.24;55.03
13367;BME280;6752;52.612;13.630;2023-04-26T12:19:09;100864.13;;;10.59;59.92
13367;BME280;6752;52.612;13.630;2023-04-26T12:24:24;100857.42;;;11.94;58.00
13367;BME280;6752;52.612;13.630;2023-04-26T12:29:25;100869.64;;;11.07;57.26
13367;BME280;6752;52.612;13.630;2023-04-26T12:34:28;100861.70;;;10.41;58.38
13367;BME280;6752;52.612;13.630;2023-04-26T12:39:30;100860.11;;;10.40;58.58
13367;BME280;6752;52.612;13.630;2023-04-26T12:44:32;100865.80;;;10.60;60.22
13367;BME280;6752;52.612;13.630;2023-04-26T12:49:35;100861.08;;;10.65;58.02
13367;BME280;6752;52.612;13.630;2023-04-26T12:54:37;100841.15;;;12.48;54.74
13367;BME280;6752;52.612;13.630;2023-04-26T12:59:39;100854.09;;;11.14;54.98
13367;BME280;6752;52.612;13.630;2023-04-26T13:04:41;100855.19;;;10.68;58.07
13367;BME280;6752;52.612;13.630;2023-04-26T13:09:44;100863.29;;;10.17;59.21
13367;BME280;6752;52.612;13.630;2023-04-26T13:14:46;100878.45;;;9.80;61.65
13367;BME280;6752;52.612;13.630;2023-04-26T13:19:49;100877.28;;;9.88;60.58
13367;BME280;6752;52.612;13.630;2023-04-26T13:24:51;100878.20;;;10.24;61.62
13367;BME280;6752;52.612;13.630;2023-04-26T13:29:53;100876.15;;;10.64;58.45
13367;BME280;6752;52.612;13.630;2023-04-26T13:34:56;100871.23;;;11.21;56.00
13367;BME280;6752;52.612;13.630;2023-04-26T13:39:58;100870.59;;;11.75;54.01
13367;BME280;6752;52.612;13.630;2023-04-26T13:45:00;100872.47;;;10.71;54.16
13367;BME280;6752;52.612;13.630;2023-04-26T13:50:02;100871.46;;;10.17;55.69
13367;BME280;6752;52.612;13.630;2023-04-26T13:55:04;100884.37;;;10.09;57.95
13367;BME280;6752;52.612;13.630;2023-04-26T14:00:06;100893.73;;;9.94;60.24
13367;BME280;6752;52.612;13.630;2023-04-26T14:05:08;100894.37;;;9.79;59.69
13367;BME280;6752;52.612;13.630;2023-04-26T14:10:10;100894.70;;;10.71;60.87
13367;BME280;6752;52.612;13.630;2023-04-26T14:15:13;100882.23;;;12.23;58.44
13367;BME280;6752;52.612;13.630;2023-04-26T14:20:15;100885.87;;;11.71;55.59
13367;BME280;6752;52.612;13.630;2023-04-26T14:25:17;100883.44;;;11.31;55.15
13367;BME280;6752;52.612;13.630;2023-04-26T14:30:20;100884.44;;;11.40;58.05
13367;BME280;6752;52.612;13.630;2023-04-26T14:35:22;100889.25;;;11.85;56.47
13367;BME280;6752;52.612;13.630;2023-04-26T14:40:24;100882.20;;;11.11;53.91
13367;BME280;6752;52.612;13.630;2023-04-26T14:45:27;100884.03;;;12.02;54.31
13367;BME280;6752;52.612;13.630;2023-04-26T14:50:29;100873.47;;;12.45;52.89
13367;BME280;6752;52.612;13.630;2023-04-26T14:55:32;100881.80;;;11.67;51.72
13367;BME280;6752;52.612;13.630;2023-04-26T15:00:34;100885.80;;;11.24;53.95
13367;BME280;6752;52.612;13.630;2023-04-26T15:05:36;100894.47;;;11.11;56.49
13367;BME280;6752;52.612;13.630;2023-04-26T15:10:39;100891.91;;;11.04;56.44
13367;BME280;6752;52.612;13.630;2023-04-26T15:15:41;100887.46;;;10.94;56.62
13367;BME280;6752;52.612;13.630;2023-04-26T15:20:43;100884.98;;;10.89;55.90
13367;BME280;6752;52.612;13.630;2023-04-26T15:25:46;100888.66;;;10.82;56.48
13367;BME280;6752;52.612;13.630;2023-04-26T15:30:48;100883.69;;;10.88;55.48
13367;BME280;6752;52.612;13.630;2023-04-26T15:35:50;100894.02;;;10.79;55.60
13367;BME280;6752;52.612;13.630;2023-04-26T15:40:52;100901.73;;;10.70;57.84
13367;BME280;6752;52.612;13.630;2023-04-26T15:45:55;100896.35;;;10.50;57.42
13367;BME280;6752;52.612;13.630;2023-04-26T15:50:57;100896.09;;;10.33;57.83
13367;BME280;6752;52.612;13.630;2023-04-26T15:56:00;100902.75;;;9.94;60.76
13367;BME280;6752;52.612;13.630;2023-04-26T16:01:03;100912.98;;;10.06;59.99
13367;BME280;6752;52.612;13.630;2023-04-26T16:06:05;100908.69;;;9.91;61.46
13367;BME280;6752;52.612;13.630;2023-04-26T16:11:07;100915.91;;;10.17;61.20
13367;BME280;6752;52.612;13.630;2023-04-26T16:16:09;100910.14;;;10.10;62.20
13367;BME280;6752;52.612;13.630;2023-04-26T16:21:12;100907.66;;;10.02;62.56
13367;BME280;6752;52.612;13.630;2023-04-26T16:26:14;100918.53;;;10.05;62.84
13367;BME280;6752;52.612;13.630;2023-04-26T16:31:16;100924.30;;;9.86;63.99
13367;BME280;6752;52.612;13.630;2023-04-26T16:36:19;100926.20;;;9.76;63.80
13367;BME280;6752;52.612;13.630;2023-04-26T16:41:21;100931.45;;;9.71;64.99
13367;BME280;6752;52.612;13.630;2023-04-26T16:46:23;100931.22;;;9.49;64.51
13367;BME280;6752;52.612;13.630;2023-04-26T16:51:26;100932.44;;;9.33;66.28
13367;BME280;6752;52.612;13.630;2023-04-26T16:56:28;100936.94;;;9.37;68.02
13367;BME280;6752;52.612;13.630;2023-04-26T17:01:30;100934.25;;;9.60;67.04
13367;BME280;6752;52.612;13.630;2023-04-26T17:06:33;100932.78;;;9.67;66.76
13367;BME280;6752;52.612;13.630;2023-04-26T17:11:35;100929.54;;;9.58;65.56
13367;BME280;6752;52.612;13.630;2023-04-26T17:16:38;100932.05;;;9.49;65.85
13367;BME280;6752;52.612;13.630;2023-04-26T17:21:40;100933.31;;;9.83;65.95
13367;BME280;6752;52.612;13.630;2023-04-26T17:26:42;100938.24;;;9.77;65.55
13367;BME280;6752;52.612;13.630;2023-04-26T17:31:45;100940.55;;;9.77;64.58
13367;BME280;6752;52.612;13.630;2023-04-26T17:36:47;100939.92;;;9.72;63.39
13367;BME280;6752;52.612;13.630;2023-04-26T17:41:49;100939.38;;;9.69;65.18
13367;BME280;6752;52.612;13.630;2023-04-26T17:46:52;100944.01;;;9.72;63.38
13367;BME280;6752;52.612;13.630;2023-04-26T17:51:54;100946.81;;;9.58;65.25
13367;BME280;6752;52.612;13.630;2023-04-26T17:56:56;100944.89;;;9.28;64.36
13367;BME280;6752;52.612;13.630;2023-04-26T18:01:59;100951.19;;;9.02;64.35
13367;BME280;6752;52.612;13.630;2023-04-26T18:07:01;100959.27;;;8.85;66.68
13367;BME280;6752;52.612;13.630;2023-04-26T18:12:03;100958.78;;;8.72;67.16
13367;BME280;6752;52.612;13.630;2023-04-26T18:17:06;100972.66;;;8.49;68.63
13367;BME280;6752;52.612;13.630;2023-04-26T18:22:08;100974.05;;;8.35;69.35
13367;BME280;6752;52.612;13.630;2023-04-26T18:27:11;100979.43;;;8.18;70.48
13367;BME280;6752;52.612;13.630;2023-04-26T18:32:13;100991.56;;;7.94;71.68
13367;BME280;6752;52.612;13.630;2023-04-26T18:37:15;100994.11;;;7.84;72.66
13367;BME280;6752;52.612;13.630;2023-04-26T18:42:18;101006.16;;;7.68;74.07
13367;BME280;6752;52.612;13.630;2023-04-26T18:47:20;101016.83;;;7.41;77.42
13367;BME280;6752;52.612;13.630;2023-04-26T18:52:22;101018.67;;;7.37;78.05
13367;BME280;6752;52.612;13.630;2023-04-26T18:57:25;101020.41;;;7.34;78.40
13367;BME280;6752;52.612;13.630;2023-04-26T19:02:27;101027.80;;;7.25;77.88
13367;BME280;6752;52.612;13.630;2023-04-26T19:07:29;101035.20;;;7.09;79.84
13367;BME280;6752;52.612;13.630;2023-04-26T19:12:32;101040.53;;;6.92;81.20
13367;BME280;6752;52.612;13.630;2023-04-26T19:17:34;101049.77;;;6.83;82.72
13367;BME280;6752;52.612;13.630;2023-04-26T19:22:37;101047.48;;;6.76;83.12
13367;BME280;6752;52.612;13.630;2023-04-26T19:27:39;101055.83;;;6.55;84.33
13367;BME280;6752;52.612;13.630;2023-04-26T19:32:41;101055.09;;;6.47;85.54
13367;BME280;6752;52.612;13.630;2023-04-26T19:37:43;101044.18;;;6.36;87.13
13367;BME280;6752;52.612;13.630;2023-04-26T19:42:46;101055.66;;;6.23;89.55
13367;BME280;6752;52.612;13.630;2023-04-26T19:47:48;101057.66;;;6.14;90.39
13367;BME280;6752;52.612;13.630;2023-04-26T19:52:51;101057.13;;;6.00;91.02
13367;BME280;6752;52.612;13.630;2023-04-26T19:57:53;101061.22;;;5.96;90.44
13367;BME280;6752;52.612;13.630;2023-04-26T20:02:56;101061.69;;;5.92;90.09
13367;BME280;6752;52.612;13.630;2023-04-26T20:07:58;101067.20;;;5.83;90.36
13367;BME280;6752;52.612;13.630;2023-04-26T20:13:00;101063.09;;;5.68;91.11
13367;BME280;6752;52.612;13.630;2023-04-26T20:18:02;101070.15;;;5.73;89.90
13367;BME280;6752;52.612;13.630;2023-04-26T20:23:04;101068.11;;;5.75;90.64
13367;BME280;6752;52.612;13.630;2023-04-26T20:28:07;101063.45;;;5.77;90.29
13367;BME280;6752;52.612;13.630;2023-04-26T20:33:09;101075.20;;;5.76;91.08
13367;BME280;6752;52.612;13.630;2023-04-26T20:38:11;101077.24;;;5.74;93.33
13367;BME280;6752;52.612;13.630;2023-04-26T20:43:14;101071.34;;;5.82;93.37
13367;BME280;6752;52.612;13.630;2023-04-26T20:48:16;101074.08;;;5.78;93.81
13367;BME280;6752;52.612;13.630;2023-04-26T20:53:18;101072.56;;;5.64;95.28
13367;BME280;6752;52.612;13.630;2023-04-26T20:58:21;101073.98;;;5.56;96.58
13367;BME280;6752;52.612;13.630;2023-04-26T21:03:23;101074.88;;;5.48;98.40
13367;BME280;6752;52.612;13.630;2023-04-26T21:08:25;101081.06;;;5.57;98.10
13367;BME280;6752;52.612;13.630;2023-04-26T21:13:28;101070.97;;;5.62;98.37
13367;BME280;6752;52.612;13.630;2023-04-26T21:18:30;101074.78;;;5.61;98.98
13367;BME280;6752;52.612;13.630;2023-04-26T21:23:33;101075.32;;;5.67;99.56
13367;BME280;6752;52.612;13.630;2023-04-26T21:28:35;101074.81;;;5.72;99.35
13367;BME280;6752;52.612;13.630;2023-04-26T21:33:37;101076.44;;;5.66;100.00
13367;BME280;6752;52.612;13.630;2023-04-26T21:38:40;101076.77;;;5.67;100.00
13367;BME280;6752;52.612;13.630;2023-04-26T21:43:42;101085.78;;;5.75;100.00
13367;BME280;6752;52.612;13.630;2023-04-26T21:48:44;101082.95;;;5.68;100.00
13367;BME280;6752;52.612;13.630;2023-04-26T21:53:47;101090.14;;;5.53;100.00
13367;BME280;6752;52.612;13.630;2023-04-26T21:58:49;101087.00;;;5.37;100.00
13367;BME280;6752;52.612;13.630;2023-04-26T22:03:51;101085.31;;;5.24;100.00
13367;BME280;6752;52.612;13.630;2023-04-26T22:08:54;101093.56;;;5.27;100.00
13367;BME280;6752;52.612;13.630;2023-04-26T22:13:56;101102.90;;;5.20;100.00
13367;BME280;6752;52.612;13.630;2023-04-26T22:18:58;101101.56;;;5.32;100.00
13367;BME280;6752;52.612;13.630;2023-04-26T22:24:00;101110.05;;;5.40;100.00
13367;BME280;6752;52.612;13.630;2023-04-26T22:29:02;101113.00;;;5.58;100.00
13367;BME280;6752;52.612;13.630;2023-04-26T22:34:04;101122.33;;;5.70;100.00
13367;BME280;6752;52.612;13.630;2023-04-26T22:39:06;101118.17;;;5.67;100.00
13367;BME280;6752;52.612;13.630;2023-04-26T22:44:08;101124.03;;;5.79;100.00
13367;BME280;6752;52.612;13.630;2023-04-26T22:49:11;101118.69;;;5.71;100.00
13367;BME280;6752;52.612;13.630;2023-04-26T22:54:13;101124.25;;;5.73;100.00
13367;BME280;6752;52.612;13.630;2023-04-26T22:59:15;101128.55;;;5.75;100.00
13367;BME280;6752;52.612;13.630;2023-04-26T23:04:18;101134.38;;;5.75;100.00
13367;BME280;6752;52.612;13.630;2023-04-26T23:09:20;101132.78;;;5.74;100.00
13367;BME280;6752;52.612;13.630;2023-04-26T23:14:23;101136.98;;;5.76;100.00
13367;BME280;6752;52.612;13.630;2023-04-26T23:19:25;101139.45;;;5.86;100.00
13367;BME280;6752;52.612;13.630;2023-04-26T23:24:27;101140.59;;;5.80;100.00
13367;BME280;6752;52.612;13.630;2023-04-26T23:29:29;101141.29;;;5.78;100.00
13367;BME280;6752;52.612;13.630;2023-04-26T23:34:32;101145.08;;;5.80;100.00
13367;BME280;6752;52.612;13.630;2023-04-26T23:39:34;101136.66;;;5.75;100.00
13367;BME280;6752;52.612;13.630;2023-04-26T23:44:36;101144.20;;;5.72;100.00
13367;BME280;6752;52.612;13.630;2023-04-26T23:49:39;101141.23;;;5.75;100.00
13367;BME280;6752;52.612;13.630;2023-04-26T23:54:41;101140.56;;;5.73;100.00
13367;BME280;6752;52.612;13.630;2023-04-26T23:59:43;101136.81;;;5.78;100.00
